KSVC

Grant County Airport

Silver City, New Mexico, USA
METAR KSVC 140655Z AUTO 31010KT 10SM CLR M02/M12 A3034 RMK AO2 T10161120 400951048
Observed Flight Rules
Dec-14 @ 06:55 UTC (2 hours ago) Visual Flight Rules
Wind Visibility Clouds
310° at 10 knots 10 miles
  • Clear skies
Temperatures Readings
Current -2°C / 28°F
Dewpoint -12°C / 10°F
Humidity 47%
Altimeter 30.34" Hg
Pressure 1027 hPa
Elevation 1659
METAR KSVC 140655Z AUTO 31010KT 10SM CLR M02/M12 A3034 RMK AO2 T10161120 400951048
Observed Flight Rules
Dec-14 @ 06:55 UTC
(2 hours ago)
VFR
Wind Visibility
310° at 10 knots 10 miles
Clouds
  • Clear skies
Temperature Dewpoint
-2°C / 28°F -12°C / 10°F
Humidity Altimeter Pressure
47% 30.34" Hg 1027 hPa